Time;durP1;ratioP1;P1;durP2;ratioP2;P2;SDS_P1;SDS_P2;PMS_P1;PMS_P2;Temp;Humidity;BMP_temperature;BMP_pressure;BME280_temperature;BME280_humidity;BME280_pressure;Samples;Min_cycle;Max_cycle;Signal;HPM_P1;HPM_P2
2023/03/07 00:00:07;;;;;;;;;;;16.90;40.80;;;;;;5133351;27;20623;-70
2023/03/07 00:02:33;;;;;;;;;;;16.90;40.80;;;;;;5142151;27;19923;-70
2023/03/07 00:04:58;;;;;;;;;;;16.90;40.90;;;;;;5151212;27;20300;-70
2023/03/07 00:07:24;;;;;;;;;;;16.90;40.80;;;;;;5132110;27;19924;-70
2023/03/07 00:09:49;;;;;;;;;;;16.90;40.80;;;;;;5151014;27;19967;-70
2023/03/07 00:12:15;;;;;;;;;;;16.80;40.80;;;;;;5152327;27;19974;-70
2023/03/07 00:14:40;;;;;;;;;;;16.80;40.80;;;;;;5140395;27;19919;-70
2023/03/07 00:17:06;;;;;;;;;;;16.90;40.80;;;;;;5126770;27;19936;-71
2023/03/07 00:19:33;;;;;;;;;;;16.80;40.80;;;;;;5120853;27;19983;-71
2023/03/07 00:21:58;;;;;;;;;;;16.80;40.80;;;;;;5120367;27;19930;-70
2023/03/07 00:24:24;;;;;;;;;;;16.80;41.00;;;;;;5116883;27;19920;-70
2023/03/07 00:26:49;;;;;;;;;;;16.80;41.00;;;;;;5119620;27;20301;-71
2023/03/07 00:29:15;;;;;;;;;;;16.80;41.00;;;;;;5122638;27;19994;-70
2023/03/07 00:31:43;;;;;;;;;;;16.80;41.00;;;;;;5127489;27;20339;-70
2023/03/07 00:34:09;;;;;;;;;;;16.80;41.00;;;;;;5118614;27;19919;-70
2023/03/07 00:36:34;;;;;;;;;;;16.80;41.00;;;;;;5121149;27;20071;-70
2023/03/07 00:39:00;;;;;;;;;;;16.80;40.90;;;;;;5136327;27;20263;-70
2023/03/07 00:41:26;;;;;;;;;;;16.80;40.90;;;;;;5120595;27;19926;-70
2023/03/07 00:43:53;;;;;;;;;;;16.80;40.90;;;;;;5119994;27;20400;-71
2023/03/07 00:46:20;;;;;;;;;;;16.80;40.90;;;;;;5126272;27;19919;-70
2023/03/07 00:48:45;;;;;;;;;;;16.70;41.70;;;;;;5120578;27;19969;-70
2023/03/07 00:51:12;;;;;;;;;;;16.80;41.00;;;;;;5119118;27;19919;-70
2023/03/07 00:53:38;;;;;;;;;;;16.70;41.00;;;;;;5118676;27;20294;-70
2023/03/07 00:56:06;;;;;;;;;;;16.70;41.00;;;;;;5118187;27;19930;-69
2023/03/07 00:58:33;;;;;;;;;;;16.80;40.90;;;;;;5127577;27;19930;-70
2023/03/07 01:00:58;;;;;;;;;;;17.00;41.60;;;;;;5118706;27;20011;-70
2023/03/07 01:03:24;;;;;;;;;;;17.20;40.60;;;;;;5118604;27;20438;-70
2023/03/07 01:05:50;;;;;;;;;;;17.40;40.20;;;;;;5125642;27;20378;-70
2023/03/07 01:08:20;;;;;;;;;;;17.70;39.90;;;;;;5132388;27;19970;-71
2023/03/07 01:10:47;;;;;;;;;;;18.10;39.60;;;;;;5121296;27;20006;-70
2023/03/07 01:13:13;;;;;;;;;;;18.40;38.90;;;;;;5119170;27;19919;-70
2023/03/07 01:15:41;;;;;;;;;;;18.80;38.50;;;;;;5118530;27;20286;-70
2023/03/07 01:18:08;;;;;;;;;;;19.30;37.80;;;;;;5117444;27;20282;-71
2023/03/07 01:20:35;;;;;;;;;;;19.70;37.30;;;;;;5118393;27;20378;-71
2023/03/07 01:23:04;;;;;;;;;;;20.10;36.80;;;;;;5118728;27;19924;-71
2023/03/07 01:25:30;;;;;;;;;;;20.50;36.10;;;;;;5117398;27;20353;-70
2023/03/07 01:27:55;;;;;;;;;;;20.80;35.70;;;;;;5118770;27;19963;-70
2023/03/07 01:30:22;;;;;;;;;;;21.00;35.30;;;;;;5118025;27;20301;-71
2023/03/07 01:32:53;;;;;;;;;;;21.30;34.80;;;;;;5116690;27;19920;-70
2023/03/07 01:35:18;;;;;;;;;;;21.50;34.60;;;;;;5119640;27;19927;-70
2023/03/07 01:37:46;;;;;;;;;;;21.70;34.30;;;;;;5118902;27;20286;-70
2023/03/07 01:40:12;;;;;;;;;;;21.80;34.10;;;;;;5116968;27;19924;-71
2023/03/07 01:42:37;;;;;;;;;;;22.00;33.90;;;;;;5120290;27;20011;-71
2023/03/07 01:45:06;;;;;;;;;;;22.10;33.80;;;;;;5119196;27;20363;-70
2023/03/07 01:47:31;;;;;;;;;;;22.20;33.50;;;;;;5124250;27;19951;-70
2023/03/07 01:49:58;;;;;;;;;;;22.30;33.30;;;;;;5117176;27;20386;-70
2023/03/07 01:52:28;;;;;;;;;;;22.40;33.60;;;;;;5117995;27;19923;-70
2023/03/07 01:54:55;;;;;;;;;;;22.50;33.10;;;;;;5118705;27;19968;-70
2023/03/07 01:57:23;;;;;;;;;;;22.50;33.00;;;;;;5119820;27;20009;-70
2023/03/07 01:59:51;;;;;;;;;;;22.50;32.80;;;;;;5118164;27;20362;-70
2023/03/07 02:02:18;;;;;;;;;;;22.60;32.90;;;;;;5126164;27;20303;-71
2023/03/07 02:04:48;;;;;;;;;;;22.60;32.70;;;;;;5126216;27;20294;-71
2023/03/07 02:07:15;;;;;;;;;;;22.60;32.70;;;;;;5117612;27;19927;-71
2023/03/07 02:09:41;;;;;;;;;;;22.60;32.60;;;;;;5118863;27;20019;-71
2023/03/07 02:12:07;;;;;;;;;;;22.60;32.70;;;;;;5118982;27;20382;-71
2023/03/07 02:14:33;;;;;;;;;;;22.60;32.60;;;;;;5116657;27;19925;-70
2023/03/07 02:16:58;;;;;;;;;;;22.60;32.60;;;;;;5125595;27;19926;-71
2023/03/07 02:19:44;;;;;;;;;;;22.60;32.60;;;;;;5120414;27;20022;-71
2023/03/07 02:22:11;;;;;;;;;;;22.60;32.60;;;;;;5117025;27;19975;-71
2023/03/07 02:24:41;;;;;;;;;;;22.50;32.50;;;;;;5116014;27;20260;-70
2023/03/07 02:27:06;;;;;;;;;;;22.50;32.60;;;;;;5120357;27;19923;-71
2023/03/07 02:29:32;;;;;;;;;;;22.50;32.60;;;;;;5115543;27;19969;-70
2023/03/07 02:31:57;;;;;;;;;;;22.40;32.80;;;;;;5117073;27;20325;-70
2023/03/07 02:34:25;;;;;;;;;;;22.40;32.70;;;;;;5119469;27;19923;-73
2023/03/07 02:36:52;;;;;;;;;;;22.30;32.70;;;;;;5117324;27;20278;-71
2023/03/07 02:39:20;;;;;;;;;;;22.30;32.90;;;;;;5115914;27;19927;-71
2023/03/07 02:41:46;;;;;;;;;;;22.30;33.00;;;;;;5117138;27;19928;-71
2023/03/07 02:44:11;;;;;;;;;;;22.20;32.90;;;;;;5118638;27;20339;-70
2023/03/07 02:46:37;;;;;;;;;;;22.10;33.00;;;;;;5126139;27;19919;-71
2023/03/07 02:49:02;;;;;;;;;;;22.10;33.10;;;;;;5127014;27;19919;-70
2023/03/07 02:51:28;;;;;;;;;;;22.10;33.20;;;;;;5116032;27;19920;-70
2023/03/07 02:53:53;;;;;;;;;;;22.10;33.10;;;;;;5116973;27;19924;-70
2023/03/07 02:56:19;;;;;;;;;;;22.10;33.10;;;;;;5134350;27;19927;-71
2023/03/07 02:58:44;;;;;;;;;;;22.10;33.20;;;;;;5118830;27;19919;-70
2023/03/07 03:01:10;;;;;;;;;;;22.10;33.10;;;;;;5130133;28;19920;-70
2023/03/07 03:03:36;;;;;;;;;;;22.10;33.10;;;;;;5124551;28;19927;-70
2023/03/07 03:06:01;;;;;;;;;;;22.10;33.00;;;;;;5123887;28;19934;-70
2023/03/07 03:08:27;;;;;;;;;;;22.20;33.00;;;;;;5116648;28;20263;-71
2023/03/07 03:10:53;;;;;;;;;;;22.20;33.00;;;;;;5119646;28;20753;-70
2023/03/07 03:13:19;;;;;;;;;;;22.30;33.00;;;;;;5117429;28;19919;-71
2023/03/07 03:15:44;;;;;;;;;;;22.40;32.90;;;;;;5123500;28;19920;-72
2023/03/07 03:18:10;;;;;;;;;;;22.40;32.90;;;;;;5116010;28;20381;-72
2023/03/07 03:20:38;;;;;;;;;;;22.40;32.80;;;;;;5116558;28;19919;-71
2023/03/07 03:23:03;;;;;;;;;;;22.40;32.80;;;;;;5118310;28;19945;-71
2023/03/07 03:25:29;;;;;;;;;;;22.40;32.70;;;;;;5134940;27;19920;-70
2023/03/07 03:27:57;;;;;;;;;;;22.40;32.80;;;;;;5117961;28;19926;-70
2023/03/07 03:30:23;;;;;;;;;;;22.30;32.80;;;;;;5117579;28;20380;-71
2023/03/07 03:32:49;;;;;;;;;;;22.30;32.80;;;;;;5116327;28;20098;-71
2023/03/07 03:35:14;;;;;;;;;;;22.20;32.80;;;;;;5126378;28;19926;-70
2023/03/07 03:37:40;;;;;;;;;;;22.20;32.80;;;;;;5113085;28;19968;-71
2023/03/07 03:40:12;;;;;;;;;;;22.20;32.80;;;;;;5116388;28;19927;-70
2023/03/07 03:42:40;;;;;;;;;;;22.20;32.90;;;;;;5114475;28;19930;-71
2023/03/07 03:45:06;;;;;;;;;;;22.10;32.90;;;;;;5117257;28;20185;-70
2023/03/07 03:47:32;;;;;;;;;;;22.10;32.90;;;;;;5124220;27;19976;-71
2023/03/07 03:49:58;;;;;;;;;;;22.10;33.00;;;;;;5118118;27;20377;-71
2023/03/07 03:52:23;;;;;;;;;;;22.10;33.00;;;;;;5137179;27;19930;-71
2023/03/07 03:54:49;;;;;;;;;;;22.10;33.00;;;;;;5137338;27;20006;-71
2023/03/07 03:57:16;;;;;;;;;;;22.10;33.00;;;;;;5120564;27;20015;-70
2023/03/07 03:59:42;;;;;;;;;;;22.10;33.10;;;;;;5120386;27;20433;-71
2023/03/07 04:02:11;;;;;;;;;;;22.10;33.10;;;;;;5119507;27;20026;-70
2023/03/07 04:04:36;;;;;;;;;;;22.40;33.20;;;;;;5120043;27;20194;-70
2023/03/07 04:07:03;;;;;;;;;;;22.20;33.00;;;;;;5121134;27;19926;-71
2023/03/07 04:09:29;;;;;;;;;;;22.10;32.90;;;;;;5120597;27;19923;-70
2023/03/07 04:11:55;;;;;;;;;;;22.10;32.90;;;;;;5119087;27;19972;-70
2023/03/07 04:14:20;;;;;;;;;;;22.20;33.00;;;;;;5121043;27;19920;-71
2023/03/07 04:16:46;;;;;;;;;;;22.20;33.70;;;;;;5126861;27;19919;-71
2023/03/07 04:19:11;;;;;;;;;;;22.20;32.80;;;;;;5119078;27;19968;-71
2023/03/07 04:21:38;;;;;;;;;;;22.20;32.80;;;;;;5121574;27;19924;-71
2023/03/07 04:24:07;;;;;;;;;;;22.20;32.80;;;;;;5119857;27;19964;-71
2023/03/07 04:26:33;;;;;;;;;;;22.30;32.80;;;;;;5120645;27;19967;-70
2023/03/07 04:28:58;;;;;;;;;;;22.20;32.80;;;;;;5121997;27;19927;-71
2023/03/07 04:31:26;;;;;;;;;;;22.20;32.80;;;;;;5119952;27;19920;-71
2023/03/07 04:33:52;;;;;;;;;;;22.20;32.80;;;;;;5121829;27;20267;-71
2023/03/07 04:36:17;;;;;;;;;;;22.20;32.90;;;;;;5120076;27;19920;-72
2023/03/07 04:38:43;;;;;;;;;;;22.20;32.80;;;;;;5128190;27;19920;-71
2023/03/07 04:41:12;;;;;;;;;;;22.20;32.90;;;;;;5119487;27;19927;-70
2023/03/07 04:43:38;;;;;;;;;;;22.10;32.90;;;;;;5133724;27;20006;-70
2023/03/07 04:46:04;;;;;;;;;;;22.10;32.90;;;;;;5120641;27;20014;-71
2023/03/07 04:48:32;;;;;;;;;;;22.10;33.00;;;;;;5118495;27;19920;-70
2023/03/07 04:50:58;;;;;;;;;;;21.90;32.90;;;;;;5126343;27;20002;-70
2023/03/07 04:53:24;;;;;;;;;;;22.10;32.90;;;;;;5126093;27;20116;-70
2023/03/07 04:55:49;;;;;;;;;;;22.10;32.90;;;;;;5120283;27;20400;-72
2023/03/07 04:58:15;;;;;;;;;;;22.10;32.90;;;;;;5129036;27;19946;-71
2023/03/07 05:00:41;;;;;;;;;;;22.10;32.90;;;;;;5137734;27;19966;-70
2023/03/07 05:03:07;;;;;;;;;;;22.10;32.90;;;;;;5119929;27;20424;-70
2023/03/07 05:05:33;;;;;;;;;;;22.10;32.90;;;;;;5118113;27;19935;-70
2023/03/07 05:07:58;;;;;;;;;;;22.10;32.80;;;;;;5126616;27;19919;-70
2023/03/07 05:10:24;;;;;;;;;;;22.10;32.80;;;;;;5136258;27;19926;-70
2023/03/07 05:12:50;;;;;;;;;;;22.10;32.80;;;;;;5126133;27;20006;-70
2023/03/07 05:15:15;;;;;;;;;;;22.10;32.70;;;;;;5125666;27;20002;-71
2023/03/07 05:17:41;;;;;;;;;;;22.20;32.80;;;;;;5117698;27;20376;-72
2023/03/07 05:20:08;;;;;;;;;;;22.20;32.80;;;;;;5136543;27;19924;-71
2023/03/07 05:22:34;;;;;;;;;;;22.20;32.70;;;;;;5115467;27;19927;-70
2023/03/07 05:25:00;;;;;;;;;;;22.20;32.60;;;;;;5118500;27;19920;-71
2023/03/07 05:27:25;;;;;;;;;;;22.30;32.60;;;;;;5116617;27;19920;-71
2023/03/07 05:29:51;;;;;;;;;;;22.30;32.50;;;;;;5126608;27;20008;-71
2023/03/07 05:32:16;;;;;;;;;;;22.40;32.40;;;;;;5125728;27;19979;-71
2023/03/07 05:34:43;;;;;;;;;;;22.40;32.30;;;;;;5117480;27;19931;-70
2023/03/07 05:37:11;;;;;;;;;;;22.50;32.30;;;;;;5120985;27;19946;-70
2023/03/07 05:39:37;;;;;;;;;;;22.50;32.20;;;;;;5126456;27;19931;-71
2023/03/07 05:42:03;;;;;;;;;;;22.50;32.20;;;;;;5114754;27;19924;-71
2023/03/07 05:44:28;;;;;;;;;;;22.50;32.20;;;;;;5117755;27;19931;-71
2023/03/07 05:46:57;;;;;;;;;;;22.50;32.20;;;;;;5121634;27;19926;-71
2023/03/07 05:49:23;;;;;;;;;;;22.50;32.30;;;;;;5126091;27;19920;-72
2023/03/07 05:51:49;;;;;;;;;;;22.50;32.30;;;;;;5114044;27;20014;-71
2023/03/07 05:54:15;;;;;;;;;;;22.40;32.20;;;;;;5118055;27;20488;-71
2023/03/07 05:56:40;;;;;;;;;;;22.40;32.20;;;;;;5116770;27;19968;-72
2023/03/07 05:59:06;;;;;;;;;;;22.40;32.20;;;;;;5117767;27;19928;-71
2023/03/07 06:01:32;;;;;;;;;;;22.40;32.20;;;;;;5126105;27;19927;-71
2023/03/07 06:03:58;;;;;;;;;;;22.40;32.20;;;;;;5128325;27;19930;-71
2023/03/07 06:06:23;;;;;;;;;;;22.30;32.30;;;;;;5131725;27;19920;-70
2023/03/07 06:08:49;;;;;;;;;;;22.30;32.30;;;;;;5112454;28;20014;-70
2023/03/07 06:11:14;;;;;;;;;;;22.40;32.30;;;;;;5111810;28;20380;-70
2023/03/07 06:13:40;;;;;;;;;;;22.30;32.30;;;;;;5113664;28;20264;-71
2023/03/07 06:16:09;;;;;;;;;;;22.30;32.20;;;;;;5112146;28;19920;-71
2023/03/07 06:18:34;;;;;;;;;;;22.30;32.20;;;;;;5112082;28;19919;-72
2023/03/07 06:21:01;;;;;;;;;;;22.30;32.30;;;;;;5113506;28;19920;-71
2023/03/07 06:23:27;;;;;;;;;;;22.30;32.30;;;;;;5113335;28;19924;-72
2023/03/07 06:25:53;;;;;;;;;;;22.30;32.20;;;;;;5113430;28;19947;-71
2023/03/07 06:28:19;;;;;;;;;;;22.30;31.50;;;;;;5113216;28;20370;-71
2023/03/07 06:30:45;;;;;;;;;;;22.20;32.20;;;;;;5113229;28;19927;-71
2023/03/07 06:33:10;;;;;;;;;;;22.20;32.10;;;;;;5111914;28;20173;-71
2023/03/07 06:35:38;;;;;;;;;;;22.20;32.20;;;;;;5102436;28;20299;-70
2023/03/07 06:38:03;;;;;;;;;;;22.20;32.10;;;;;;5097928;28;20378;-70
2023/03/07 06:40:29;;;;;;;;;;;22.30;32.90;;;;;;5102866;28;20049;-67
2023/03/07 06:42:54;;;;;;;;;;;22.20;33.20;;;;;;5109466;28;20064;-68
2023/03/07 06:45:20;;;;;;;;;;;22.10;33.40;;;;;;5103094;28;20002;-72
2023/03/07 06:47:45;;;;;;;;;;;22.10;33.60;;;;;;5100172;28;19924;-71
2023/03/07 06:50:11;;;;;;;;;;;22.10;33.60;;;;;;5106877;28;19920;-73
2023/03/07 06:52:36;;;;;;;;;;;22.20;33.80;;;;;;5103375;28;19930;-70
2023/03/07 06:55:05;;;;;;;;;;;22.20;34.00;;;;;;5106579;28;20284;-69
2023/03/07 06:57:33;;;;;;;;;;;22.40;33.80;;;;;;5097451;28;20011;-74
2023/03/07 06:59:59;;;;;;;;;;;22.50;33.50;;;;;;5097195;28;20270;-72
2023/03/07 07:02:24;;;;;;;;;;;22.70;33.30;;;;;;5100017;28;19924;-73
2023/03/07 07:04:50;;;;;;;;;;;22.50;31.90;;;;;;5102898;28;19924;-72
2023/03/07 07:07:15;;;;;;;;;;;22.40;30.70;;;;;;5096935;28;20325;-73
2023/03/07 07:09:41;;;;;;;;;;;22.10;30.20;;;;;;5097804;28;19920;-72
2023/03/07 07:12:06;;;;;;;;;;;22.00;31.30;;;;;;5105584;28;19923;-73
2023/03/07 07:14:33;;;;;;;;;;;22.20;32.00;;;;;;5105845;28;19924;-68
2023/03/07 07:16:59;;;;;;;;;;;22.40;32.30;;;;;;5103287;28;19919;-73
2023/03/07 07:19:25;;;;;;;;;;;22.50;32.40;;;;;;5107312;28;20036;-73
2023/03/07 07:21:52;;;;;;;;;;;22.80;32.40;;;;;;5106587;28;19973;-73
2023/03/07 07:24:17;;;;;;;;;;;23.00;32.30;;;;;;5107566;28;20461;-72
2023/03/07 07:26:43;;;;;;;;;;;23.10;32.10;;;;;;5101528;28;19920;-72
2023/03/07 07:29:11;;;;;;;;;;;23.20;31.90;;;;;;5102851;28;20078;-67
2023/03/07 07:31:37;;;;;;;;;;;23.30;31.90;;;;;;5103825;28;19927;-73
2023/03/07 07:34:02;;;;;;;;;;;23.40;31.80;;;;;;5108161;28;20467;-71
2023/03/07 07:36:28;;;;;;;;;;;23.50;31.70;;;;;;5109518;28;19924;-72
2023/03/07 07:38:54;;;;;;;;;;;23.60;31.50;;;;;;5093496;28;19924;-72
2023/03/07 07:41:19;;;;;;;;;;;23.50;30.40;;;;;;5097844;27;20304;-72
2023/03/07 07:43:47;;;;;;;;;;;23.40;30.20;;;;;;5091540;27;19928;-71
2023/03/07 07:46:12;;;;;;;;;;;23.40;31.20;;;;;;5081970;28;19931;-70
2023/03/07 07:48:38;;;;;;;;;;;23.30;30.00;;;;;;5092058;28;19920;-78
2023/03/07 07:51:04;;;;;;;;;;;23.10;30.80;;;;;;5094272;28;20056;-72
2023/03/07 07:53:30;;;;;;;;;;;23.00;31.50;;;;;;5102864;28;19920;-79
2023/03/07 07:55:55;;;;;;;;;;;23.10;31.90;;;;;;5095541;28;20022;-76
2023/03/07 07:58:21;;;;;;;;;;;23.20;32.10;;;;;;5110573;27;20026;-74
2023/03/07 08:00:46;;;;;;;;;;;23.40;32.10;;;;;;5108207;27;19935;-76
2023/03/07 08:03:12;;;;;;;;;;;23.40;32.10;;;;;;5094400;28;19924;-76
2023/03/07 08:05:42;;;;;;;;;;;23.40;32.30;;;;;;5096318;28;19928;-73
2023/03/07 08:08:08;;;;;;;;;;;23.20;32.40;;;;;;5091961;28;19924;-76
2023/03/07 08:10:34;;;;;;;;;;;23.10;32.60;;;;;;5093675;28;19959;-73
2023/03/07 08:13:00;;;;;;;;;;;23.10;32.80;;;;;;5092760;28;19963;-73
2023/03/07 08:15:25;;;;;;;;;;;22.90;33.00;;;;;;5098026;28;21065;-73
2023/03/07 08:17:51;;;;;;;;;;;22.80;33.40;;;;;;5099354;28;19945;-75
2023/03/07 08:20:17;;;;;;;;;;;22.60;33.60;;;;;;5093201;28;20279;-74
2023/03/07 08:22:42;;;;;;;;;;;22.40;33.70;;;;;;5089873;28;19930;-70
2023/03/07 08:25:13;;;;;;;;;;;22.30;34.10;;;;;;5095794;28;20014;-76
2023/03/07 08:27:38;;;;;;;;;;;22.10;34.40;;;;;;5099062;28;19924;-75
2023/03/07 08:30:04;;;;;;;;;;;22.00;34.70;;;;;;5111632;27;19924;-74
2023/03/07 08:32:29;;;;;;;;;;;21.80;35.00;;;;;;5100691;28;19924;-73
2023/03/07 08:34:55;;;;;;;;;;;21.60;35.20;;;;;;5087538;28;20031;-76
2023/03/07 08:37:21;;;;;;;;;;;21.50;35.60;;;;;;5085035;28;19924;-69
2023/03/07 08:39:46;;;;;;;;;;;21.40;35.80;;;;;;5093317;28;19924;-76
2023/03/07 08:42:12;;;;;;;;;;;21.20;36.00;;;;;;5111603;27;19970;-74
2023/03/07 08:44:37;;;;;;;;;;;21.20;36.40;;;;;;5105563;27;19924;-69
2023/03/07 08:47:03;;;;;;;;;;;21.00;36.60;;;;;;5092667;28;20009;-69
2023/03/07 08:49:28;;;;;;;;;;;20.90;36.80;;;;;;5095005;28;19959;-73
2023/03/07 08:51:54;;;;;;;;;;;20.80;37.10;;;;;;5102282;28;20123;-72
2023/03/07 08:54:19;;;;;;;;;;;20.70;37.30;;;;;;5096714;28;20024;-73
2023/03/07 08:56:45;;;;;;;;;;;20.60;37.60;;;;;;5111765;27;20351;-74
2023/03/07 08:59:10;;;;;;;;;;;20.50;37.80;;;;;;5102826;28;19938;-76
2023/03/07 09:01:36;;;;;;;;;;;20.40;38.00;;;;;;5097184;28;19950;-75
2023/03/07 09:04:01;;;;;;;;;;;20.50;38.40;;;;;;5092003;28;20862;-74
2023/03/07 09:06:27;;;;;;;;;;;20.20;38.40;;;;;;5096061;28;19924;-69
2023/03/07 09:08:53;;;;;;;;;;;20.20;38.50;;;;;;5098315;28;19921;-76
2023/03/07 09:11:20;;;;;;;;;;;20.10;38.80;;;;;;5096683;28;19930;-72
2023/03/07 09:13:45;;;;;;;;;;;19.90;39.20;;;;;;5094865;28;20007;-76
2023/03/07 09:16:11;;;;;;;;;;;19.90;39.70;;;;;;5094735;28;20466;-79
2023/03/07 09:18:37;;;;;;;;;;;19.80;39.30;;;;;;5089365;28;19934;-69
2023/03/07 09:21:03;;;;;;;;;;;19.70;39.20;;;;;;5094468;28;19920;-71
2023/03/07 09:23:28;;;;;;;;;;;19.60;39.30;;;;;;5095525;28;19934;-71
2023/03/07 09:25:57;;;;;;;;;;;19.60;39.60;;;;;;5095930;28;20411;-76
2023/03/07 09:28:23;;;;;;;;;;;19.50;39.80;;;;;;5091515;28;20014;-77
2023/03/07 09:30:48;;;;;;;;;;;19.40;40.00;;;;;;5094194;28;20026;-74
2023/03/07 09:33:14;;;;;;;;;;;19.40;40.30;;;;;;5091430;28;19924;-71
2023/03/07 09:35:39;;;;;;;;;;;19.30;40.50;;;;;;5092580;28;19998;-74
2023/03/07 09:38:05;;;;;;;;;;;19.30;40.70;;;;;;5092692;28;19930;-72
2023/03/07 09:40:30;;;;;;;;;;;19.30;40.60;;;;;;5101417;27;20609;-67
2023/03/07 09:43:16;;;;;;;;;;;19.30;40.10;;;;;;5092216;28;20485;-67
2023/03/07 09:51:08;;;;;;;;;;;19.10;40.20;;;;;;5083253;27;20454;-67
2023/03/07 09:56:18;;;;;;;;;;;19.10;40.30;;;;;;5073430;28;20369;-70
2023/03/07 09:58:46;;;;;;;;;;;19.10;40.40;;;;;;5069265;28;20005;-68
2023/03/07 10:01:13;;;;;;;;;;;19.10;40.60;;;;;;5060912;28;19924;-77
2023/03/07 10:03:44;;;;;;;;;;;19.10;40.90;;;;;;5059101;28;19935;-74
2023/03/07 10:08:52;;;;;;;;;;;19.00;41.30;;;;;;5107705;27;19919;-75
2023/03/07 10:16:47;;;;;;;;;;;18.90;41.40;;;;;;5070882;27;19920;-71
2023/03/07 10:19:33;;;;;;;;;;;18.90;41.60;;;;;;5069262;28;19925;-72
2023/03/07 10:27:43;;;;;;;;;;;18.90;41.70;;;;;;5129906;27;19920;-70
2023/03/07 10:30:14;;;;;;;;;;;18.90;41.90;;;;;;5135985;27;19987;-74
2023/03/07 10:32:42;;;;;;;;;;;18.80;41.70;;;;;;5158929;27;19927;-78
2023/03/07 10:38:01;;;;;;;;;;;18.80;42.10;;;;;;5069946;28;19930;-74
2023/03/07 10:40:30;;;;;;;;;;;18.80;42.20;;;;;;5052421;28;19947;-71
2023/03/07 10:42:57;;;;;;;;;;;18.80;42.30;;;;;;5056449;28;19955;-69
2023/03/07 10:45:23;;;;;;;;;;;18.80;42.40;;;;;;5057212;28;19924;-71
2023/03/07 10:47:48;;;;;;;;;;;18.70;42.50;;;;;;5058869;28;20574;-76
2023/03/07 10:50:34;;;;;;;;;;;18.70;42.50;;;;;;5067842;28;19955;-72
2023/03/07 10:53:01;;;;;;;;;;;18.70;42.70;;;;;;5073248;28;19924;-73
2023/03/07 11:01:13;;;;;;;;;;;18.60;42.70;;;;;;5088564;27;19938;-73
2023/03/07 11:03:42;;;;;;;;;;;18.60;42.70;;;;;;5106976;27;19956;-71
2023/03/07 11:06:24;;;;;;;;;;;18.60;42.80;;;;;;5073965;28;20562;-70
2023/03/07 11:08:49;;;;;;;;;;;18.70;42.80;;;;;;5081127;28;20423;-74
2023/03/07 11:11:21;;;;;;;;;;;18.70;42.70;;;;;;5113007;27;19932;-73
2023/03/07 11:14:03;;;;;;;;;;;18.80;42.60;;;;;;5073562;28;19924;-76
2023/03/07 11:16:29;;;;;;;;;;;18.80;42.60;;;;;;5075707;28;20171;-74
2023/03/07 11:18:56;;;;;;;;;;;18.80;42.60;;;;;;5081643;28;19928;-68
2023/03/07 11:21:26;;;;;;;;;;;18.80;42.80;;;;;;5075411;28;19924;-67
2023/03/07 11:26:40;;;;;;;;;;;18.90;42.50;;;;;;5086023;27;19931;-67
2023/03/07 11:29:06;;;;;;;;;;;18.90;42.30;;;;;;5115392;27;19920;-68
2023/03/07 11:31:35;;;;;;;;;;;18.90;42.20;;;;;;5084988;28;19928;-69
2023/03/07 11:36:46;;;;;;;;;;;19.00;42.10;;;;;;5075369;27;20199;-67
2023/03/07 11:39:16;;;;;;;;;;;19.00;42.40;;;;;;5059604;28;19929;-72
2023/03/07 11:41:45;;;;;;;;;;;19.00;42.60;;;;;;5060876;28;20055;-73
2023/03/07 11:44:31;;;;;;;;;;;19.00;42.90;;;;;;5060030;28;20537;-72
2023/03/07 11:47:16;;;;;;;;;;;19.00;42.90;;;;;;5093697;28;19931;-73
2023/03/07 11:49:43;;;;;;;;;;;18.90;42.90;;;;;;5090172;28;19925;-71
2023/03/07 11:54:56;;;;;;;;;;;18.70;42.90;;;;;;5063308;27;19939;-70
2023/03/07 12:03:04;;;;;;;;;;;18.70;42.80;;;;;;5061444;27;19920;-68
2023/03/07 12:13:53;;;;;;;;;;;18.60;42.70;;;;;;5066804;28;19953;-68
2023/03/07 12:19:11;;;;;;;;;;;18.60;42.90;;;;;;5080289;27;1865672;-71
2023/03/07 12:21:46;;;;;;;;;;;18.50;43.00;;;;;;5111066;27;19923;-70
2023/03/07 12:24:16;;;;;;;;;;;18.50;42.80;;;;;;5131888;27;20847;-70
2023/03/07 12:29:34;;;;;;;;;;;18.40;42.60;;;;;;4980935;27;4779031;-70
2023/03/07 12:32:02;;;;;;;;;;;18.50;42.60;;;;;;5131535;27;19965;-69
2023/03/07 12:40:09;;;;;;;;;;;18.40;42.50;;;;;;5075189;27;20410;-70
2023/03/07 12:45:23;;;;;;;;;;;18.40;42.60;;;;;;5052720;28;19946;-69
2023/03/07 12:55:59;;;;;;;;;;;18.40;42.60;;;;;;5068679;27;19954;-70
2023/03/07 12:58:33;;;;;;;;;;;18.30;43.00;;;;;;5049587;28;19929;-69
2023/03/07 13:01:01;;;;;;;;;;;18.30;43.00;;;;;;5050185;28;19932;-68
2023/03/07 13:06:12;;;;;;;;;;;18.30;43.20;;;;;;5086614;27;19922;-69
2023/03/07 13:08:39;;;;;;;;;;;18.20;43.20;;;;;;5075999;28;19930;-70
2023/03/07 13:11:04;;;;;;;;;;;18.20;43.20;;;;;;5053969;28;20073;-69
2023/03/07 13:16:43;;;;;;;;;;;18.30;43.60;;;;;;5052750;28;19951;-69
2023/03/07 13:19:28;;;;;;;;;;;18.20;43.50;;;;;;5048169;28;19987;-72
2023/03/07 13:21:54;;;;;;;;;;;18.30;44.10;;;;;;5063122;28;19925;-73
2023/03/07 13:24:36;;;;;;;;;;;18.30;44.40;;;;;;5061825;28;19924;-70
2023/03/07 13:27:03;;;;;;;;;;;18.30;44.40;;;;;;5060530;28;19924;-75
2023/03/07 13:29:48;;;;;;;;;;;18.20;44.20;;;;;;5044320;28;19924;-70
2023/03/07 13:32:33;;;;;;;;;;;18.20;44.10;;;;;;5046821;28;20028;-73
2023/03/07 13:34:59;;;;;;;;;;;18.20;44.30;;;;;;5058794;28;19929;-74
2023/03/07 13:37:44;;;;;;;;;;;18.20;44.30;;;;;;5042341;28;19925;-72
2023/03/07 13:40:30;;;;;;;;;;;18.20;44.20;;;;;;5047370;28;19925;-73
2023/03/07 13:42:56;;;;;;;;;;;18.10;44.00;;;;;;5048195;28;19924;-74
2023/03/07 13:51:08;;;;;;;;;;;18.10;44.40;;;;;;5092018;27;19924;-73
2023/03/07 13:53:50;;;;;;;;;;;18.10;44.30;;;;;;5104087;27;20005;-73
2023/03/07 13:59:16;;;;;;;;;;;18.10;44.20;;;;;;5062980;27;19942;-72
2023/03/07 14:01:44;;;;;;;;;;;18.00;44.10;;;;;;5046866;28;20003;-76
2023/03/07 14:04:30;;;;;;;;;;;18.00;44.10;;;;;;5047375;28;19927;-77
2023/03/07 14:06:59;;;;;;;;;;;18.00;44.80;;;;;;5054987;28;20030;-79
2023/03/07 14:09:30;;;;;;;;;;;18.00;45.40;;;;;;5073920;28;19936;-77
2023/03/07 14:15:04;;;;;;;;;;;18.10;45.20;;;;;;5086945;27;19921;-73
2023/03/07 14:17:52;;;;;;;;;;;18.20;45.60;;;;;;5068377;28;19920;-79
2023/03/07 14:20:40;;;;;;;;;;;18.10;45.40;;;;;;5077823;28;19925;-71
2023/03/07 14:23:25;;;;;;;;;;;18.20;44.80;;;;;;5083441;28;19966;-70
2023/03/07 14:25:55;;;;;;;;;;;18.20;44.10;;;;;;5088569;28;19932;-70
2023/03/07 14:28:22;;;;;;;;;;;18.20;43.70;;;;;;5068634;28;19921;-71
2023/03/07 14:30:57;;;;;;;;;;;18.20;43.50;;;;;;5088140;28;19959;-71
2023/03/07 14:33:31;;;;;;;;;;;18.20;43.30;;;;;;5074843;28;19966;-71
2023/03/07 14:35:56;;;;;;;;;;;18.20;42.80;;;;;;5093456;28;20338;-70
2023/03/07 14:38:23;;;;;;;;;;;18.20;42.30;;;;;;5091370;28;19924;-70
2023/03/07 14:40:59;;;;;;;;;;;18.10;42.10;;;;;;5092181;28;20438;-70
2023/03/07 14:46:25;;;;;;;;;;;18.20;41.80;;;;;;5094673;27;19912;-71
2023/03/07 14:48:59;;;;;;;;;;;18.10;41.50;;;;;;5106189;28;19929;-71
2023/03/07 14:51:26;;;;;;;;;;;18.10;41.30;;;;;;5106720;27;20007;-71
2023/03/07 14:53:53;;;;;;;;;;;18.10;41.00;;;;;;5070775;28;20423;-70
2023/03/07 14:56:27;;;;;;;;;;;18.10;40.80;;;;;;5071739;28;19927;-71
2023/03/07 14:58:54;;;;;;;;;;;18.10;40.70;;;;;;5078478;28;19920;-71
2023/03/07 15:01:20;;;;;;;;;;;18.10;40.50;;;;;;5089880;28;19920;-72
2023/03/07 15:03:48;;;;;;;;;;;18.10;40.30;;;;;;5071548;28;19974;-71
2023/03/07 15:06:15;;;;;;;;;;;18.10;40.20;;;;;;5071791;28;19920;-71
2023/03/07 15:08:41;;;;;;;;;;;18.10;40.00;;;;;;5079114;28;19921;-75
2023/03/07 15:14:06;;;;;;;;;;;18.10;40.40;;;;;;5086893;28;19941;-70
2023/03/07 15:16:36;;;;;;;;;;;18.10;41.00;;;;;;5101114;28;19928;-71
2023/03/07 15:21:46;;;;;;;;;;;18.10;41.00;;;;;;5086588;28;19919;-70
2023/03/07 15:24:15;;;;;;;;;;;18.10;41.20;;;;;;5085739;28;19924;-71
2023/03/07 15:26:46;;;;;;;;;;;18.10;41.40;;;;;;5082210;28;19995;-72
2023/03/07 15:29:12;;;;;;;;;;;18.10;41.70;;;;;;5082118;28;19920;-71
2023/03/07 15:31:58;;;;;;;;;;;18.10;41.80;;;;;;5079548;28;19921;-72
2023/03/07 15:34:25;;;;;;;;;;;18.00;41.50;;;;;;5082980;28;20339;-72
2023/03/07 15:36:51;;;;;;;;;;;18.00;41.70;;;;;;5081447;28;19927;-71
2023/03/07 15:39:33;;;;;;;;;;;18.00;41.80;;;;;;5081655;28;19928;-75
2023/03/07 15:42:01;;;;;;;;;;;18.00;41.90;;;;;;5080789;28;19977;-73
2023/03/07 15:44:26;;;;;;;;;;;18.00;41.80;;;;;;5083104;28;19924;-72
2023/03/07 15:46:54;;;;;;;;;;;18.00;41.70;;;;;;5083720;28;20006;-73
2023/03/07 15:49:22;;;;;;;;;;;17.90;41.60;;;;;;5082834;28;19978;-73
2023/03/07 15:51:50;;;;;;;;;;;17.90;41.60;;;;;;5082412;28;19924;-73
2023/03/07 15:54:19;;;;;;;;;;;17.90;41.60;;;;;;5083014;28;20003;-73
2023/03/07 15:56:46;;;;;;;;;;;17.80;41.60;;;;;;5084528;28;19924;-73
2023/03/07 15:59:17;;;;;;;;;;;17.80;41.70;;;;;;5083230;28;20003;-73